Time;durP1;ratioP1;P1;durP2;ratioP2;P2;SDS_P1;SDS_P2;PMS_P1;PMS_P2;Temp;Humidity;BMP_temperature;BMP_pressure;BME280_temperature;BME280_humidity;BME280_pressure;Samples;Min_cycle;Max_cycle;Signal;HPM_P1;HPM_P2
2021/07/25 00:01:32;;;;;;;1.20;0.10;;;;;;;;;;5048284;28;20033;-72
2021/07/25 00:03:59;;;;;;;0.90;0.22;;;;;;;;;;5048200;28;20648;-71
2021/07/25 00:06:26;;;;;;;2.03;0.20;;;;;;;;;;5071034;28;20032;-70
2021/07/25 00:08:53;;;;;;;1.55;0.20;;;;;;;;;;5064324;28;20396;-69
2021/07/25 00:11:20;;;;;;;1.67;0.10;;;;;;;;;;5059801;28;20481;-71
2021/07/25 00:13:51;;;;;;;2.78;0.30;;;;;;;;;;5057217;28;20037;-69
2021/07/25 00:16:19;;;;;;;2.25;0.20;;;;;;;;;;5059818;28;20022;-71
2021/07/25 00:18:46;;;;;;;0.88;0.10;;;;;;;;;;5059324;28;20021;-70
2021/07/25 00:21:13;;;;;;;0.28;0.05;;;;;;;;;;5052257;28;20082;-69
2021/07/25 00:23:47;;;;;;;1.83;0.22;;;;;;;;;;5054190;28;20427;-69
2021/07/25 00:26:17;;;;;;;1.95;0.20;;;;;;;;;;5049825;28;20114;-69
2021/07/25 00:28:44;;;;;;;1.13;0.10;;;;;;;;;;5051722;28;20024;-70
2021/07/25 00:31:11;;;;;;;0.85;0.25;;;;;;;;;;5052679;28;20451;-70
2021/07/25 00:33:39;;;;;;;1.70;0.82;;;;;;;;;;5054915;28;20057;-70
2021/07/25 00:36:06;;;;;;;1.45;0.10;;;;;;;;;;5071048;28;20031;-70
2021/07/25 00:38:34;;;;;;;0.63;0.10;;;;;;;;;;5063709;28;20676;-69
2021/07/25 00:41:06;;;;;;;0.45;0.10;;;;;;;;;;5052222;28;20091;-70
2021/07/25 00:43:33;;;;;;;0.63;0.20;;;;;;;;;;5068445;28;20119;-69
2021/07/25 00:46:00;;;;;;;1.98;0.55;;;;;;;;;;5072468;28;20020;-69
2021/07/25 00:48:28;;;;;;;0.85;0.20;;;;;;;;;;5061098;28;20029;-69
2021/07/25 00:50:55;;;;;;;2.80;0.20;;;;;;;;;;5052249;28;20029;-69
2021/07/25 00:53:25;;;;;;;2.30;0.20;;;;;;;;;;5064137;28;20036;-70
2021/07/25 00:55:53;;;;;;;0.77;0.20;;;;;;;;;;5059852;28;20112;-70
2021/07/25 00:58:20;;;;;;;0.77;0.10;;;;;;;;;;5046217;28;20090;-69
2021/07/25 01:00:48;;;;;;;1.08;0.20;;;;;;;;;;5058568;28;20032;-68
2021/07/25 01:03:33;;;;;;;4.63;0.98;;;;;;;;;;5055062;28;20024;-68
2021/07/25 01:06:12;;;;;;;0.65;0.10;;;;;;;;;;5048103;28;20068;-68
2021/07/25 01:08:39;;;;;;;1.20;0.25;;;;;;;;;;5052806;28;20036;-69
2021/07/25 01:11:07;;;;;;;0.85;0.10;;;;;;;;;;5072553;28;20028;-68
2021/07/25 01:13:37;;;;;;;1.42;0.10;;;;;;;;;;5070857;28;20017;-69
2021/07/25 01:16:04;;;;;;;1.60;0.10;;;;;;;;;;5068041;28;20017;-67
2021/07/25 01:18:32;;;;;;;1.23;0.20;;;;;;;;;;5073651;28;20037;-68
2021/07/25 01:20:59;;;;;;;0.93;0.10;;;;;;;;;;5067881;28;20116;-68
2021/07/25 01:23:26;;;;;;;1.40;0.10;;;;;;;;;;5063875;28;20428;-68
2021/07/25 01:25:57;;;;;;;0.35;0.10;;;;;;;;;;5056024;28;20355;-69
2021/07/25 01:28:26;;;;;;;1.02;0.10;;;;;;;;;;5067821;28;20405;-69
2021/07/25 01:30:58;;;;;;;1.90;0.10;;;;;;;;;;5074484;28;20024;-69
2021/07/25 01:33:27;;;;;;;0.17;0.08;;;;;;;;;;5062280;28;20050;-69
2021/07/25 01:35:55;;;;;;;1.10;0.00;;;;;;;;;;5069535;28;20021;-70
2021/07/25 01:38:23;;;;;;;0.75;0.00;;;;;;;;;;5057691;28;20576;-70
2021/07/25 01:41:03;;;;;;;0.68;0.00;;;;;;;;;;5053837;28;20040;-70
2021/07/25 01:43:32;;;;;;;1.50;0.10;;;;;;;;;;5054880;28;20567;-69
2021/07/25 01:45:59;;;;;;;0.47;0.10;;;;;;;;;;5055688;28;20025;-69
2021/07/25 01:48:26;;;;;;;0.43;0.10;;;;;;;;;;5047206;28;20025;-70
2021/07/25 01:50:53;;;;;;;1.98;0.20;;;;;;;;;;5053997;28;20036;-70
2021/07/25 01:53:21;;;;;;;0.40;0.00;;;;;;;;;;5046276;28;20025;-67
2021/07/25 01:55:48;;;;;;;0.63;0.00;;;;;;;;;;5041311;28;20103;-70
2021/07/25 01:58:15;;;;;;;2.97;0.20;;;;;;;;;;5056197;28;20029;-70
2021/07/25 02:00:42;;;;;;;0.90;0.10;;;;;;;;;;5077900;28;20031;-70
2021/07/25 02:03:09;;;;;;;0.10;0.00;;;;;;;;;;5063710;28;20110;-71
2021/07/25 02:05:39;;;;;;;0.10;0.03;;;;;;;;;;5050229;28;20029;-70
2021/07/25 02:08:06;;;;;;;1.10;0.10;;;;;;;;;;5056144;28;20021;-70
2021/07/25 02:10:33;;;;;;;1.02;0.22;;;;;;;;;;5044363;28;20030;-70
2021/07/25 02:13:01;;;;;;;0.57;0.10;;;;;;;;;;5044795;28;20036;-69
2021/07/25 02:15:28;;;;;;;0.30;0.10;;;;;;;;;;5052904;28;20150;-68
2021/07/25 02:17:55;;;;;;;0.30;0.10;;;;;;;;;;5038939;28;20422;-70
2021/07/25 02:20:22;;;;;;;0.45;0.00;;;;;;;;;;5042545;28;20022;-68
2021/07/25 02:22:49;;;;;;;0.40;0.00;;;;;;;;;;5037494;28;20036;-68
2021/07/25 02:25:16;;;;;;;0.90;0.10;;;;;;;;;;5042498;28;20432;-67
2021/07/25 02:27:43;;;;;;;0.63;0.10;;;;;;;;;;5047588;28;20091;-68
2021/07/25 02:30:11;;;;;;;0.20;0.10;;;;;;;;;;5042562;28;20032;-68
2021/07/25 02:32:38;;;;;;;1.10;0.20;;;;;;;;;;5040214;28;20116;-68
2021/07/25 02:35:05;;;;;;;0.40;0.10;;;;;;;;;;5044258;28;20090;-68
2021/07/25 02:37:32;;;;;;;0.50;0.20;;;;;;;;;;5042842;28;20369;-68
2021/07/25 02:39:59;;;;;;;0.30;0.10;;;;;;;;;;5040805;28;20156;-69
2021/07/25 02:42:27;;;;;;;1.02;0.30;;;;;;;;;;5048982;28;20099;-69
2021/07/25 02:44:54;;;;;;;1.08;0.10;;;;;;;;;;5062760;28;20036;-68
2021/07/25 02:47:21;;;;;;;0.43;0.17;;;;;;;;;;5044319;28;20028;-69
2021/07/25 02:49:48;;;;;;;0.85;0.00;;;;;;;;;;5044914;28;20021;-69
2021/07/25 02:52:16;;;;;;;0.28;0.08;;;;;;;;;;5056507;28;20017;-69
2021/07/25 02:54:43;;;;;;;1.98;0.10;;;;;;;;;;5049705;28;20094;-68
2021/07/25 02:57:10;;;;;;;1.00;0.22;;;;;;;;;;5054890;28;20017;-69
2021/07/25 02:59:37;;;;;;;0.30;0.10;;;;;;;;;;5066648;28;20504;-69
2021/07/25 03:02:04;;;;;;;1.30;0.10;;;;;;;;;;5075169;28;20030;-69
2021/07/25 03:04:31;;;;;;;1.10;0.17;;;;;;;;;;5068971;28;20025;-69
2021/07/25 03:06:58;;;;;;;0.82;0.20;;;;;;;;;;5050438;28;20020;-68
2021/07/25 03:09:26;;;;;;;0.98;0.03;;;;;;;;;;5040120;28;20379;-69
2021/07/25 03:11:53;;;;;;;0.47;0.10;;;;;;;;;;5048412;28;20037;-68
2021/07/25 03:14:20;;;;;;;0.28;0.05;;;;;;;;;;5043164;28;20063;-70
2021/07/25 03:16:47;;;;;;;0.47;0.15;;;;;;;;;;5043722;28;20470;-68
2021/07/25 03:19:14;;;;;;;0.20;0.00;;;;;;;;;;5041682;28;20100;-68
2021/07/25 03:21:41;;;;;;;0.22;0.00;;;;;;;;;;5041553;28;20112;-69
2021/07/25 03:24:09;;;;;;;1.40;0.10;;;;;;;;;;5049135;28;20036;-69
2021/07/25 03:26:36;;;;;;;0.30;0.00;;;;;;;;;;5037011;28;20049;-68
2021/07/25 03:29:03;;;;;;;0.55;0.20;;;;;;;;;;5044287;28;20029;-69
2021/07/25 03:31:30;;;;;;;0.55;0.17;;;;;;;;;;5045291;28;20075;-69
2021/07/25 03:33:59;;;;;;;0.10;0.00;;;;;;;;;;5044322;28;20109;-69
2021/07/25 03:36:27;;;;;;;0.17;0.00;;;;;;;;;;5048219;28;20473;-69
2021/07/25 03:38:54;;;;;;;0.47;0.03;;;;;;;;;;5041345;28;20036;-69
2021/07/25 03:41:21;;;;;;;0.13;0.00;;;;;;;;;;5043454;28;20025;-69
2021/07/25 03:43:48;;;;;;;0.13;0.00;;;;;;;;;;5046970;28;20168;-69
2021/07/25 03:46:17;;;;;;;1.05;0.10;;;;;;;;;;5042174;28;20367;-69
2021/07/25 03:48:44;;;;;;;0.60;0.10;;;;;;;;;;5043524;28;20021;-69
2021/07/25 03:51:12;;;;;;;0.60;0.22;;;;;;;;;;5044796;28;20382;-69
2021/07/25 03:53:39;;;;;;;0.38;0.10;;;;;;;;;;5046095;28;20474;-70
2021/07/25 03:56:06;;;;;;;0.63;0.10;;;;;;;;;;5039317;28;20033;-69
2021/07/25 03:58:34;;;;;;;0.30;0.10;;;;;;;;;;5046891;28;20039;-69
2021/07/25 04:01:02;;;;;;;1.10;0.17;;;;;;;;;;5044997;28;20040;-68
2021/07/25 04:03:29;;;;;;;1.75;0.05;;;;;;;;;;5041118;28;20392;-68
2021/07/25 04:05:56;;;;;;;0.55;0.00;;;;;;;;;;5038810;28;20037;-68
2021/07/25 04:08:23;;;;;;;1.52;0.10;;;;;;;;;;5037342;28;20021;-69
2021/07/25 04:10:50;;;;;;;0.77;0.10;;;;;;;;;;5042780;28;20025;-69
2021/07/25 04:13:17;;;;;;;2.90;0.10;;;;;;;;;;5046241;28;20036;-69
2021/07/25 04:15:45;;;;;;;0.43;0.10;;;;;;;;;;5036428;28;20603;-67
2021/07/25 04:18:13;;;;;;;0.60;0.10;;;;;;;;;;5059751;28;20493;-68
2021/07/25 04:20:40;;;;;;;0.43;0.10;;;;;;;;;;5045849;28;20080;-69
2021/07/25 04:23:07;;;;;;;0.17;0.08;;;;;;;;;;5048944;28;20036;-68
2021/07/25 04:25:34;;;;;;;0.90;0.10;;;;;;;;;;5030113;28;20046;-67
2021/07/25 04:28:02;;;;;;;0.93;0.10;;;;;;;;;;5051291;28;20032;-69
2021/07/25 04:30:30;;;;;;;0.63;0.10;;;;;;;;;;5049630;28;20056;-69
2021/07/25 04:32:58;;;;;;;0.45;0.10;;;;;;;;;;5052347;28;20338;-68
2021/07/25 04:35:25;;;;;;;3.08;0.55;;;;;;;;;;5046838;28;20026;-68
2021/07/25 04:37:54;;;;;;;0.40;0.00;;;;;;;;;;5032822;28;20040;-69
2021/07/25 04:40:24;;;;;;;5.00;0.52;;;;;;;;;;5037197;28;20049;-68
2021/07/25 04:42:55;;;;;;;0.50;0.10;;;;;;;;;;5032421;28;20029;-69
2021/07/25 04:45:42;;;;;;;0.80;0.10;;;;;;;;;;5051382;28;20107;-69
2021/07/25 04:48:09;;;;;;;1.60;0.22;;;;;;;;;;5051290;28;20071;-69
2021/07/25 04:50:43;;;;;;;0.10;0.00;;;;;;;;;;5051731;28;20474;-69
2021/07/25 04:53:17;;;;;;;0.43;0.15;;;;;;;;;;5048181;28;20500;-69
2021/07/25 04:55:45;;;;;;;0.32;0.00;;;;;;;;;;5036533;28;20107;-69
2021/07/25 04:58:12;;;;;;;1.02;0.00;;;;;;;;;;5050638;28;20041;-68
2021/07/25 05:00:43;;;;;;;0.32;0.00;;;;;;;;;;5050038;28;20756;-68
2021/07/25 05:03:13;;;;;;;0.80;0.10;;;;;;;;;;5050013;28;20013;-69
2021/07/25 05:05:40;;;;;;;0.80;0.00;;;;;;;;;;5048478;28;20040;-69
2021/07/25 05:08:07;;;;;;;0.70;0.15;;;;;;;;;;5047987;28;20025;-69
2021/07/25 05:10:37;;;;;;;1.75;0.10;;;;;;;;;;5050581;28;20501;-70
2021/07/25 05:13:06;;;;;;;1.45;0.00;;;;;;;;;;5049333;28;20367;-69
2021/07/25 05:15:34;;;;;;;0.45;0.08;;;;;;;;;;5050537;28;20087;-68
2021/07/25 05:18:08;;;;;;;1.33;0.10;;;;;;;;;;5049621;28;20052;-69
2021/07/25 05:20:35;;;;;;;1.85;0.20;;;;;;;;;;5047947;28;20025;-71
2021/07/25 05:23:04;;;;;;;0.75;0.08;;;;;;;;;;5048336;28;20044;-68
2021/07/25 05:25:33;;;;;;;0.38;0.00;;;;;;;;;;5046993;28;20044;-70
2021/07/25 05:28:02;;;;;;;1.58;0.10;;;;;;;;;;5050331;28;20021;-68
2021/07/25 05:30:31;;;;;;;1.63;0.20;;;;;;;;;;5050887;28;20033;-68
2021/07/25 05:32:58;;;;;;;0.50;0.00;;;;;;;;;;5045536;28;20033;-70
2021/07/25 05:35:25;;;;;;;1.83;0.43;;;;;;;;;;5046589;28;20358;-69
2021/07/25 05:37:52;;;;;;;2.55;0.20;;;;;;;;;;5045081;28;20036;-69
2021/07/25 05:40:19;;;;;;;0.30;0.10;;;;;;;;;;5046252;28;20036;-70
2021/07/25 05:42:46;;;;;;;1.00;0.00;;;;;;;;;;5053933;28;20036;-70
2021/07/25 05:45:14;;;;;;;0.32;0.10;;;;;;;;;;5054540;28;20567;-67
2021/07/25 05:47:41;;;;;;;0.65;0.40;;;;;;;;;;5046139;28;20086;-68
2021/07/25 05:50:09;;;;;;;0.45;0.10;;;;;;;;;;5046464;28;20033;-68
2021/07/25 05:52:46;;;;;;;0.40;0.10;;;;;;;;;;5046151;28;20477;-68
2021/07/25 05:55:13;;;;;;;0.43;0.10;;;;;;;;;;5049233;28;20024;-67
2021/07/25 05:57:40;;;;;;;0.57;0.20;;;;;;;;;;5051429;28;20037;-67
2021/07/25 06:00:07;;;;;;;1.42;0.10;;;;;;;;;;5052704;28;20049;-67
2021/07/25 06:02:49;;;;;;;0.57;0.10;;;;;;;;;;5046314;28;20022;-68
2021/07/25 06:05:16;;;;;;;0.70;0.00;;;;;;;;;;5049976;28;20033;-67
2021/07/25 06:07:43;;;;;;;1.45;0.00;;;;;;;;;;5051071;28;20068;-67
2021/07/25 06:10:10;;;;;;;0.60;0.10;;;;;;;;;;5052322;28;20087;-68
2021/07/25 06:12:38;;;;;;;1.27;0.30;;;;;;;;;;5051815;28;20028;-67
2021/07/25 06:15:05;;;;;;;2.38;0.45;;;;;;;;;;5043433;28;20386;-67
2021/07/25 06:17:32;;;;;;;0.85;0.30;;;;;;;;;;5044317;28;20443;-67
2021/07/25 06:20:00;;;;;;;0.80;0.28;;;;;;;;;;5053709;28;20055;-68
2021/07/25 06:22:36;;;;;;;2.72;0.70;;;;;;;;;;5052170;28;20025;-68
2021/07/25 06:25:03;;;;;;;1.15;0.30;;;;;;;;;;5053998;28;20029;-68
2021/07/25 06:27:31;;;;;;;1.30;0.17;;;;;;;;;;5057097;28;20033;-68
2021/07/25 06:29:58;;;;;;;1.05;0.35;;;;;;;;;;5054141;28;20075;-68
2021/07/25 06:32:25;;;;;;;2.55;0.30;;;;;;;;;;5051548;28;20422;-68
2021/07/25 06:34:52;;;;;;;0.68;0.40;;;;;;;;;;5053770;28;20021;-69
2021/07/25 06:37:19;;;;;;;0.50;0.20;;;;;;;;;;5052108;28;20374;-69
2021/07/25 06:39:46;;;;;;;0.60;0.20;;;;;;;;;;5053678;28;20041;-67
2021/07/25 06:42:13;;;;;;;1.60;0.30;;;;;;;;;;5059274;28;20367;-68
2021/07/25 06:44:40;;;;;;;0.50;0.10;;;;;;;;;;5073184;28;20052;-67
2021/07/25 06:47:07;;;;;;;0.68;0.20;;;;;;;;;;5054322;28;20037;-68
2021/07/25 06:49:35;;;;;;;1.23;0.30;;;;;;;;;;5054120;28;20028;-68
2021/07/25 06:52:04;;;;;;;0.80;0.20;;;;;;;;;;5051342;28;20029;-68
2021/07/25 06:54:32;;;;;;;1.25;0.28;;;;;;;;;;5050544;28;20417;-68
2021/07/25 06:56:59;;;;;;;1.27;0.55;;;;;;;;;;5047081;28;20420;-68
2021/07/25 06:59:26;;;;;;;1.65;0.60;;;;;;;;;;5050350;28;20063;-68
2021/07/25 07:01:53;;;;;;;1.58;0.38;;;;;;;;;;5052539;28;20109;-68
2021/07/25 07:04:20;;;;;;;2.00;0.30;;;;;;;;;;5052382;28;20151;-69
2021/07/25 07:06:47;;;;;;;1.13;0.20;;;;;;;;;;5050082;28;20047;-68
2021/07/25 07:09:14;;;;;;;0.95;0.20;;;;;;;;;;5053471;28;20079;-68
2021/07/25 07:11:41;;;;;;;0.68;0.10;;;;;;;;;;5050842;28;20028;-68
2021/07/25 07:14:09;;;;;;;0.65;0.20;;;;;;;;;;5049245;28;20471;-69
2021/07/25 07:16:36;;;;;;;2.60;0.30;;;;;;;;;;5050034;28;20486;-69
2021/07/25 07:19:03;;;;;;;1.27;0.10;;;;;;;;;;5052219;28;20037;-69
2021/07/25 07:21:30;;;;;;;1.35;0.10;;;;;;;;;;5050898;28;20668;-70
2021/07/25 07:23:57;;;;;;;1.92;0.30;;;;;;;;;;5053874;28;20104;-69
2021/07/25 07:26:24;;;;;;;1.80;0.30;;;;;;;;;;5049550;28;20041;-68
2021/07/25 07:28:52;;;;;;;3.25;0.30;;;;;;;;;;5051341;28;20029;-67
2021/07/25 07:31:19;;;;;;;2.40;0.40;;;;;;;;;;5048197;28;20033;-69
2021/07/25 07:33:46;;;;;;;1.75;0.50;;;;;;;;;;5052746;28;20029;-69
2021/07/25 07:36:13;;;;;;;5.40;1.45;;;;;;;;;;5050196;28;20440;-69
2021/07/25 07:38:40;;;;;;;2.58;0.50;;;;;;;;;;5052339;28;20497;-69
2021/07/25 07:41:08;;;;;;;2.60;0.80;;;;;;;;;;5050732;28;20079;-69
2021/07/25 07:43:35;;;;;;;2.42;0.50;;;;;;;;;;5054082;28;20021;-68
2021/07/25 07:46:02;;;;;;;0.75;0.20;;;;;;;;;;5064608;28;20016;-67
2021/07/25 07:48:29;;;;;;;1.33;0.70;;;;;;;;;;5064637;28;20036;-68
2021/07/25 07:50:56;;;;;;;2.47;0.63;;;;;;;;;;5046846;28;20021;-69
2021/07/25 07:53:23;;;;;;;2.00;0.63;;;;;;;;;;5055673;28;20373;-68
2021/07/25 07:55:51;;;;;;;1.33;0.40;;;;;;;;;;5053129;28;20170;-68
2021/07/25 07:58:18;;;;;;;2.03;0.50;;;;;;;;;;5057132;28;20032;-69
2021/07/25 08:00:45;;;;;;;2.08;0.80;;;;;;;;;;5059024;28;20024;-68
2021/07/25 08:03:13;;;;;;;2.03;0.73;;;;;;;;;;5043352;28;20029;-67
2021/07/25 08:05:40;;;;;;;4.38;0.98;;;;;;;;;;5050059;28;20377;-68
2021/07/25 08:08:07;;;;;;;3.35;1.60;;;;;;;;;;5036966;28;20111;-67
2021/07/25 08:10:34;;;;;;;6.65;4.45;;;;;;;;;;5050318;28;20049;-69
2021/07/25 08:13:01;;;;;;;5.13;2.55;;;;;;;;;;5041894;28;20033;-68
2021/07/25 08:15:31;;;;;;;2.95;2.03;;;;;;;;;;5049016;28;20025;-67
2021/07/25 08:17:58;;;;;;;3.95;1.83;;;;;;;;;;5053123;28;20084;-69
2021/07/25 08:20:25;;;;;;;14.25;8.15;;;;;;;;;;5057944;28;20068;-69
2021/07/25 08:22:53;;;;;;;26.33;14.57;;;;;;;;;;5050308;28;20017;-68
2021/07/25 08:25:20;;;;;;;32.92;18.27;;;;;;;;;;5044254;28;20802;-68
2021/07/25 08:27:47;;;;;;;19.75;12.55;;;;;;;;;;5046773;28;20057;-70
2021/07/25 08:30:14;;;;;;;26.90;18.33;;;;;;;;;;5059015;28;20100;-69
2021/07/25 08:32:41;;;;;;;8.93;5.90;;;;;;;;;;5054787;28;20052;-68
2021/07/25 08:35:08;;;;;;;8.77;4.40;;;;;;;;;;5054473;28;20021;-68
2021/07/25 08:37:36;;;;;;;9.40;5.47;;;;;;;;;;5041292;28;20033;-68
2021/07/25 08:40:03;;;;;;;2.47;1.10;;;;;;;;;;5042285;28;20046;-68
2021/07/25 08:42:34;;;;;;;4.22;2.15;;;;;;;;;;5046895;28;20033;-69
2021/07/25 08:45:01;;;;;;;4.15;1.77;;;;;;;;;;5042507;28;20405;-71
2021/07/25 08:47:36;;;;;;;4.72;1.92;;;;;;;;;;5047888;28;20037;-70
2021/07/25 08:50:16;;;;;;;2.35;0.80;;;;;;;;;;5051329;28;20028;-70
2021/07/25 08:52:47;;;;;;;2.22;1.00;;;;;;;;;;5058930;28;20096;-69
2021/07/25 08:55:15;;;;;;;4.82;1.45;;;;;;;;;;5060464;28;20021;-70
2021/07/25 08:57:44;;;;;;;4.80;2.13;;;;;;;;;;5056757;28;20404;-69
2021/07/25 09:00:12;;;;;;;6.60;2.38;;;;;;;;;;5068456;28;20028;-68
2021/07/25 09:02:40;;;;;;;4.85;1.92;;;;;;;;;;5068159;28;20020;-71
2021/07/25 09:05:07;;;;;;;8.02;4.45;;;;;;;;;;5056683;28;20029;-69
2021/07/25 09:07:35;;;;;;;5.65;3.50;;;;;;;;;;5057286;28;20048;-70
2021/07/25 09:10:05;;;;;;;5.00;2.30;;;;;;;;;;5061895;28;20033;-70
2021/07/25 09:12:32;;;;;;;2.40;1.00;;;;;;;;;;5036836;28;20037;-71
2021/07/25 09:15:01;;;;;;;6.53;1.25;;;;;;;;;;5032012;28;20035;-70
2021/07/25 09:17:29;;;;;;;11.55;4.20;;;;;;;;;;5054628;28;20021;-70
2021/07/25 09:20:16;;;;;;;5.38;2.83;;;;;;;;;;5060821;28;20037;-69
2021/07/25 09:22:49;;;;;;;14.48;8.23;;;;;;;;;;5051805;28;20040;-69
2021/07/25 09:25:22;;;;;;;15.48;8.00;;;;;;;;;;5051336;28;20087;-70
2021/07/25 09:28:08;;;;;;;10.55;6.25;;;;;;;;;;5063386;28;20154;-70
2021/07/25 09:30:35;;;;;;;10.63;6.07;;;;;;;;;;5074333;28;20025;-70
2021/07/25 09:33:20;;;;;;;10.50;3.75;;;;;;;;;;5062227;28;20112;-69
2021/07/25 09:35:47;;;;;;;7.43;3.47;;;;;;;;;;5046993;28;20033;-69
2021/07/25 09:38:17;;;;;;;3.33;1.63;;;;;;;;;;5063473;28;20440;-68
2021/07/25 09:40:44;;;;;;;8.00;2.25;;;;;;;;;;5052199;28;20491;-70
2021/07/25 09:43:12;;;;;;;3.03;1.23;;;;;;;;;;5055368;28;20025;-70
2021/07/25 09:45:54;;;;;;;2.90;0.90;;;;;;;;;;5056103;28;20078;-70
2021/07/25 09:48:23;;;;;;;3.25;1.10;;;;;;;;;;5053665;28;20028;-69
2021/07/25 09:50:50;;;;;;;3.42;1.65;;;;;;;;;;5052583;28;20059;-68
2021/07/25 09:53:18;;;;;;;5.53;1.50;;;;;;;;;;5054905;28;20028;-69
2021/07/25 09:55:46;;;;;;;3.67;1.40;;;;;;;;;;5053072;28;20029;-69
2021/07/25 09:58:13;;;;;;;3.38;1.20;;;;;;;;;;5045659;28;20090;-69
2021/07/25 10:00:43;;;;;;;5.40;1.27;;;;;;;;;;5048798;28;20029;-70
2021/07/25 10:03:23;;;;;;;4.03;1.27;;;;;;;;;;5050875;28;20025;-69
2021/07/25 10:05:53;;;;;;;6.93;1.80;;;;;;;;;;5049541;28;20033;-68
2021/07/25 10:08:21;;;;;;;4.85;2.35;;;;;;;;;;5042439;28;20041;-70
2021/07/25 10:10:50;;;;;;;2.70;1.05;;;;;;;;;;5039117;28;20009;-69
2021/07/25 10:13:17;;;;;;;3.90;1.00;;;;;;;;;;5052436;28;20033;-69
2021/07/25 10:16:04;;;;;;;5.20;1.65;;;;;;;;;;5048484;28;20037;-69
2021/07/25 10:18:33;;;;;;;4.07;1.52;;;;;;;;;;5053978;28;20041;-69
2021/07/25 10:21:01;;;;;;;4.65;0.88;;;;;;;;;;5050956;28;20025;-70
2021/07/25 10:23:46;;;;;;;4.05;1.30;;;;;;;;;;5051575;28;20021;-69
2021/07/25 10:26:14;;;;;;;3.50;1.25;;;;;;;;;;5040651;28;20045;-69
2021/07/25 10:28:44;;;;;;;2.85;0.95;;;;;;;;;;5051566;28;20547;-68
2021/07/25 10:31:11;;;;;;;3.95;0.63;;;;;;;;;;5051212;28;20021;-69
2021/07/25 10:33:39;;;;;;;2.90;0.77;;;;;;;;;;5055288;28;20017;-71
2021/07/25 10:36:08;;;;;;;2.83;0.90;;;;;;;;;;5048621;28;20112;-70
2021/07/25 10:38:37;;;;;;;2.45;1.00;;;;;;;;;;5044108;28;20043;-69
2021/07/25 10:41:05;;;;;;;6.78;1.80;;;;;;;;;;5066844;28;20588;-70
2021/07/25 10:43:32;;;;;;;3.30;0.82;;;;;;;;;;5069896;28;20043;-70
2021/07/25 10:46:16;;;;;;;6.65;1.25;;;;;;;;;;5067929;28;20489;-72
2021/07/25 10:49:05;;;;;;;4.30;0.80;;;;;;;;;;5062450;28;20024;-71
2021/07/25 10:51:35;;;;;;;3.28;0.90;;;;;;;;;;5052168;28;20040;-71
2021/07/25 10:54:21;;;;;;;3.90;1.63;;;;;;;;;;5063709;28;20108;-70
2021/07/25 10:57:00;;;;;;;8.73;3.55;;;;;;;;;;5069800;28;20044;-70
2021/07/25 10:59:47;;;;;;;9.18;3.47;;;;;;;;;;5068029;28;20503;-71
2021/07/25 11:02:17;;;;;;;6.03;2.00;;;;;;;;;;5058477;28;20062;-70
2021/07/25 11:04:57;;;;;;;9.77;3.55;;;;;;;;;;5053218;28;20097;-72
2021/07/25 11:07:24;;;;;;;5.45;1.20;;;;;;;;;;5066845;28;20029;-71
2021/07/25 11:10:10;;;;;;;5.00;1.88;;;;;;;;;;5054816;28;20050;-71
2021/07/25 11:12:46;;;;;;;7.10;1.40;;;;;;;;;;5047131;28;20037;-71
2021/07/25 11:15:33;;;;;;;4.30;1.50;;;;;;;;;;5048317;28;20083;-70
2021/07/25 11:18:07;;;;;;;4.38;1.00;;;;;;;;;;5068327;28;20165;-70
2021/07/25 11:20:38;;;;;;;4.20;1.20;;;;;;;;;;5071231;28;20044;-72
2021/07/25 11:23:13;;;;;;;7.22;1.58;;;;;;;;;;5064401;28;20040;-70
2021/07/25 11:25:40;;;;;;;4.82;1.45;;;;;;;;;;5048353;28;20128;-71
2021/07/25 11:28:09;;;;;;;4.88;1.55;;;;;;;;;;5062547;28;20090;-70
2021/07/25 11:30:51;;;;;;;6.70;2.38;;;;;;;;;;5057471;28;20025;-71
2021/07/25 11:33:39;;;;;;;4.20;1.00;;;;;;;;;;5062094;28;20032;-72
2021/07/25 11:36:07;;;;;;;5.05;0.90;;;;;;;;;;5063869;28;20132;-72
2021/07/25 11:38:34;;;;;;;6.35;1.10;;;;;;;;;;5045312;28;20039;-71
2021/07/25 11:41:01;;;;;;;4.70;0.98;;;;;;;;;;5047380;28;20036;-72
2021/07/25 11:43:49;;;;;;;3.72;1.20;;;;;;;;;;5046586;28;20052;-73
2021/07/25 11:46:27;;;;;;;4.57;1.17;;;;;;;;;;5048288;28;20492;-71
2021/07/25 11:49:03;;;;;;;2.50;1.05;;;;;;;;;;5045498;28;20025;-71
2021/07/25 11:51:30;;;;;;;1.85;0.63;;;;;;;;;;5042400;28;20057;-70
2021/07/25 11:53:57;;;;;;;4.18;1.15;;;;;;;;;;5047631;28;20116;-71
2021/07/25 11:56:25;;;;;;;4.20;1.05;;;;;;;;;;5048996;28;20082;-73
2021/07/25 11:59:08;;;;;;;4.45;0.75;;;;;;;;;;5047406;28;20025;-70
2021/07/25 12:01:37;;;;;;;2.40;0.70;;;;;;;;;;5047667;28;20202;-70
2021/07/25 12:04:23;;;;;;;5.30;2.05;;;;;;;;;;5047276;28;20405;-71
2021/07/25 12:07:00;;;;;;;4.15;0.82;;;;;;;;;;5048946;28;20037;-70
2021/07/25 12:09:28;;;;;;;3.75;0.80;;;;;;;;;;5047133;28;20036;-73
2021/07/25 12:12:21;;;;;;;2.75;0.63;;;;;;;;;;5049007;28;20028;-71
2021/07/25 12:14:50;;;;;;;6.90;0.70;;;;;;;;;;5047849;28;20090;-70
2021/07/25 12:17:35;;;;;;;3.30;0.52;;;;;;;;;;5048356;28;20021;-70
2021/07/25 12:20:12;;;;;;;3.75;0.90;;;;;;;;;;5045001;28;20036;-71
2021/07/25 12:22:49;;;;;;;3.05;0.77;;;;;;;;;;5047369;28;20044;-70
2021/07/25 12:25:17;;;;;;;3.05;0.68;;;;;;;;;;5047413;28;20417;-70
2021/07/25 12:27:44;;;;;;;2.90;0.82;;;;;;;;;;5047486;28;20449;-70
2021/07/25 12:30:12;;;;;;;3.30;0.52;;;;;;;;;;5049439;28;20417;-70
2021/07/25 12:32:40;;;;;;;4.50;0.60;;;;;;;;;;5046532;28;20060;-69
2021/07/25 12:35:13;;;;;;;2.78;0.70;;;;;;;;;;5049541;28;20027;-70
2021/07/25 12:37:44;;;;;;;3.25;0.60;;;;;;;;;;5047215;28;20040;-69
2021/07/25 12:40:15;;;;;;;3.65;0.80;;;;;;;;;;5048520;28;20024;-70
2021/07/25 12:42:51;;;;;;;5.88;1.05;;;;;;;;;;5046678;28;20036;-69
2021/07/25 12:45:26;;;;;;;8.65;1.13;;;;;;;;;;5049841;28;20041;-69
2021/07/25 12:48:11;;;;;;;4.28;0.68;;;;;;;;;;5047355;28;20429;-69
2021/07/25 12:53:50;;;;;;;5.93;1.20;;;;;;;;;;5026654;28;20065;-70
2021/07/25 12:56:18;;;;;;;5.75;1.63;;;;;;;;;;5039608;28;20033;-69
2021/07/25 12:58:47;;;;;;;3.85;1.42;;;;;;;;;;5048278;28;20116;-69
2021/07/25 13:03:59;;;;;;;6.65;1.50;;;;;;;;;;5046819;28;20024;-69
2021/07/25 13:06:27;;;;;;;3.85;0.70;;;;;;;;;;5049067;28;20128;-70
2021/07/25 13:08:56;;;;;;;4.35;1.00;;;;;;;;;;5051274;28;20424;-70
2021/07/25 13:11:24;;;;;;;3.28;0.90;;;;;;;;;;5048354;28;20044;-71
2021/07/25 13:13:52;;;;;;;7.82;2.55;;;;;;;;;;5048352;28;20064;-69
2021/07/25 13:16:19;;;;;;;7.85;2.35;;;;;;;;;;5049040;28;20037;-70
2021/07/25 13:18:50;;;;;;;8.15;3.33;;;;;;;;;;5046551;28;20041;-70
2021/07/25 13:21:18;;;;;;;3.45;1.23;;;;;;;;;;5046566;28;20516;-70
2021/07/25 13:23:46;;;;;;;4.55;1.35;;;;;;;;;;5050891;28;20094;-68
2021/07/25 13:26:13;;;;;;;5.95;1.75;;;;;;;;;;5050536;28;20532;-70
2021/07/25 13:28:40;;;;;;;10.00;2.65;;;;;;;;;;5044639;28;20394;-71
2021/07/25 13:31:08;;;;;;;9.52;2.70;;;;;;;;;;5046375;28;20487;-68
2021/07/25 13:33:35;;;;;;;4.80;1.65;;;;;;;;;;5060648;28;20082;-69
2021/07/25 13:36:06;;;;;;;6.80;2.67;;;;;;;;;;5045977;28;20028;-69
2021/07/25 13:38:35;;;;;;;6.55;1.50;;;;;;;;;;5051305;28;20087;-70
2021/07/25 13:41:02;;;;;;;5.45;1.77;;;;;;;;;;5048361;28;20125;-70
2021/07/25 13:43:29;;;;;;;7.15;1.10;;;;;;;;;;5045738;28;20038;-69
2021/07/25 13:46:01;;;;;;;6.20;1.13;;;;;;;;;;5044735;28;20021;-69
2021/07/25 13:48:32;;;;;;;4.35;1.00;;;;;;;;;;5048079;28;20048;-70
2021/07/25 13:51:00;;;;;;;4.47;0.95;;;;;;;;;;5047277;28;20035;-70
2021/07/25 13:53:27;;;;;;;3.33;1.15;;;;;;;;;;5050616;28;20033;-69
2021/07/25 13:55:57;;;;;;;4.50;0.95;;;;;;;;;;5048525;28;20048;-70
2021/07/25 13:58:24;;;;;;;3.72;0.80;;;;;;;;;;5045826;28;20528;-69
2021/07/25 14:00:52;;;;;;;3.63;0.98;;;;;;;;;;5050992;28;20025;-70
2021/07/25 14:03:19;;;;;;;3.97;0.80;;;;;;;;;;5046182;28;20049;-68
2021/07/25 14:05:46;;;;;;;5.55;0.55;;;;;;;;;;5050217;28;20032;-69
2021/07/25 14:08:14;;;;;;;3.05;1.20;;;;;;;;;;5049293;28;20389;-70
2021/07/25 14:10:41;;;;;;;2.60;0.60;;;;;;;;;;5050383;28;20049;-68
2021/07/25 14:13:08;;;;;;;3.08;0.70;;;;;;;;;;5041764;28;20023;-69
2021/07/25 14:15:36;;;;;;;7.22;1.65;;;;;;;;;;5052379;28;20060;-68
2021/07/25 14:18:04;;;;;;;6.60;0.70;;;;;;;;;;5053572;28;20036;-69
2021/07/25 14:20:32;;;;;;;5.45;0.68;;;;;;;;;;5053901;28;20025;-69
2021/07/25 14:23:00;;;;;;;6.43;0.88;;;;;;;;;;5051949;28;20025;-69
2021/07/25 14:25:27;;;;;;;8.43;0.77;;;;;;;;;;5054554;28;20051;-69
2021/07/25 14:27:54;;;;;;;5.15;1.08;;;;;;;;;;5052246;28;20033;-69
2021/07/25 14:30:21;;;;;;;4.47;1.20;;;;;;;;;;5053931;28;20055;-69
2021/07/25 14:32:48;;;;;;;4.30;0.75;;;;;;;;;;5052316;28;20025;-71
2021/07/25 14:35:16;;;;;;;7.18;1.27;;;;;;;;;;5054038;28;20104;-70
2021/07/25 14:37:43;;;;;;;4.13;0.75;;;;;;;;;;5050586;28;20440;-69
2021/07/25 14:40:11;;;;;;;5.05;0.60;;;;;;;;;;5053156;28;20031;-70
2021/07/25 14:42:39;;;;;;;3.50;0.50;;;;;;;;;;5049055;28;20036;-69
2021/07/25 14:45:07;;;;;;;4.78;0.80;;;;;;;;;;5051545;28;20135;-69
2021/07/25 14:47:34;;;;;;;6.65;1.00;;;;;;;;;;5050624;28;20029;-70
2021/07/25 14:50:02;;;;;;;4.80;0.60;;;;;;;;;;5048979;28;20041;-70
2021/07/25 14:52:29;;;;;;;5.35;1.10;;;;;;;;;;5049272;28;20117;-69
2021/07/25 14:54:56;;;;;;;5.32;1.10;;;;;;;;;;5052759;28;20028;-68
2021/07/25 14:57:23;;;;;;;1.77;0.40;;;;;;;;;;5049935;28;20029;-69
2021/07/25 14:59:50;;;;;;;5.82;0.40;;;;;;;;;;5052702;28;20074;-69
2021/07/25 15:02:17;;;;;;;8.65;1.38;;;;;;;;;;5049826;28;20025;-70